Murray City, Ohio
Current Conditions -  °F | °C
As of 8:10 PM on Tuesday 27 Jan 2015 (Local Time) from KUNI Reporting Station
NA  
Wind Chill: 15°   Ceiling: NA
Heat Index: 22°   Visibility: 10mi
Dew Point: 13°   Wind: 6mph
Humidity: 68%   Direction: 320°NW
Pressure: 30.17"   Gusts: NA
Location:  39.51°N, 82.16°W
Report Text: KUNI 280110Z AUTO 32005KT 10SM M05/M10 A3017 RMK AO2 T10551105
Loading
Personal Weather Stations






























Interactive Weather Map New forecast layout! Learn more

10-Day Weather Forecast

Advertisements
Track Severe Weather on mobile